Time;durP1;ratioP1;P1;durP2;ratioP2;P2;SDS_P1;SDS_P2;PMS_P1;PMS_P2;Temp;Humidity;BMP_temperature;BMP_pressure;BME280_temperature;BME280_humidity;BME280_pressure;Samples;Min_cycle;Max_cycle;Signal;HPM_P1;HPM_P2
2023/03/23 00:00:46;;;;;;;73.18;23.98;;;;;;;;;;4921284;29;20039;-64
2023/03/23 00:03:13;;;;;;;88.72;24.38;;;;;;;;;;4921893;29;20044;-64
2023/03/23 00:05:41;;;;;;;106.53;25.13;;;;;;;;;;4919526;29;20056;-50
2023/03/23 00:08:08;;;;;;;75.55;23.25;;;;;;;;;;4923194;29;20401;-49
2023/03/23 00:10:36;;;;;;;63.63;22.25;;;;;;;;;;4924172;29;20410;-53
2023/03/23 00:13:02;;;;;;;94.70;23.55;;;;;;;;;;4922627;29;20052;-51
2023/03/23 00:15:30;;;;;;;91.10;23.98;;;;;;;;;;4931901;29;20063;-48
2023/03/23 00:18:02;;;;;;;101.78;25.58;;;;;;;;;;4921101;29;20036;-51
2023/03/23 00:20:29;;;;;;;70.00;22.13;;;;;;;;;;4915716;29;20450;-50
2023/03/23 00:23:00;;;;;;;105.05;25.13;;;;;;;;;;4923203;29;20050;-48
2023/03/23 00:25:25;;;;;;;95.72;23.95;;;;;;;;;;4921405;29;20071;-51
2023/03/23 00:27:51;;;;;;;89.00;23.70;;;;;;;;;;4922718;29;20501;-49
2023/03/23 00:30:17;;;;;;;79.85;22.80;;;;;;;;;;4924546;29;20082;-48
2023/03/23 00:32:43;;;;;;;96.18;23.90;;;;;;;;;;4932918;29;20046;-50
2023/03/23 00:35:08;;;;;;;98.07;23.92;;;;;;;;;;4922695;29;20039;-49
2023/03/23 00:37:35;;;;;;;85.82;24.30;;;;;;;;;;4920150;29;20528;-48
2023/03/23 00:40:05;;;;;;;55.08;21.42;;;;;;;;;;4905682;29;20044;-50
2023/03/23 00:42:36;;;;;;;73.75;22.20;;;;;;;;;;4924040;29;20042;-49
2023/03/23 00:45:02;;;;;;;86.38;22.67;;;;;;;;;;4925675;29;20114;-49
2023/03/23 00:47:27;;;;;;;89.28;23.80;;;;;;;;;;4918321;29;20035;-49
2023/03/23 00:49:55;;;;;;;105.15;23.15;;;;;;;;;;4922243;29;20041;-52
2023/03/23 00:52:21;;;;;;;67.47;21.48;;;;;;;;;;4922063;29;20405;-52
2023/03/23 00:54:46;;;;;;;88.50;24.52;;;;;;;;;;4917953;29;20036;-49
2023/03/23 00:57:15;;;;;;;91.43;23.30;;;;;;;;;;4920714;29;20035;-50
2023/03/23 00:59:41;;;;;;;83.88;22.98;;;;;;;;;;4920735;29;20071;-48
2023/03/23 01:02:06;;;;;;;78.57;22.92;;;;;;;;;;4917256;29;20457;-48
2023/03/23 01:04:36;;;;;;;106.50;26.48;;;;;;;;;;4936672;29;20584;-50
2023/03/23 01:07:02;;;;;;;79.20;23.25;;;;;;;;;;4926236;29;20051;-50
2023/03/23 01:09:28;;;;;;;63.60;21.20;;;;;;;;;;4924365;29;20050;-52
2023/03/23 01:11:55;;;;;;;105.30;24.35;;;;;;;;;;4920537;29;20039;-51
2023/03/23 01:14:21;;;;;;;65.00;21.90;;;;;;;;;;4919241;29;20504;-49
2023/03/23 01:16:49;;;;;;;96.30;24.23;;;;;;;;;;4920997;29;20094;-49
2023/03/23 01:19:15;;;;;;;110.68;24.88;;;;;;;;;;4929165;29;20039;-52
2023/03/23 01:21:40;;;;;;;75.78;23.60;;;;;;;;;;4917013;29;20064;-53
2023/03/23 01:24:06;;;;;;;83.10;23.70;;;;;;;;;;4920156;29;20040;-48
2023/03/23 01:26:32;;;;;;;87.90;23.20;;;;;;;;;;4919771;29;20083;-49
2023/03/23 01:28:57;;;;;;;90.40;23.98;;;;;;;;;;4920800;29;20046;-50
2023/03/23 01:31:24;;;;;;;92.95;25.17;;;;;;;;;;4924131;29;20110;-49
2023/03/23 01:33:50;;;;;;;130.20;27.20;;;;;;;;;;4926621;29;20028;-49
2023/03/23 01:36:19;;;;;;;72.72;23.58;;;;;;;;;;4927469;29;20032;-50
2023/03/23 01:38:45;;;;;;;89.90;24.95;;;;;;;;;;4918797;29;20060;-49
2023/03/23 01:41:12;;;;;;;94.35;24.40;;;;;;;;;;4918661;29;20032;-51
2023/03/23 01:44:01;;;;;;;92.53;24.05;;;;;;;;;;4919351;29;20036;-49
2023/03/23 01:46:28;;;;;;;83.78;23.80;;;;;;;;;;4933757;29;20048;-50
2023/03/23 01:48:57;;;;;;;79.90;23.85;;;;;;;;;;4921577;29;20096;-49
2023/03/23 01:51:24;;;;;;;105.95;26.27;;;;;;;;;;4882176;29;20123;-51
2023/03/23 01:53:53;;;;;;;91.45;25.08;;;;;;;;;;4920604;29;20091;-50
2023/03/23 01:56:24;;;;;;;64.65;23.42;;;;;;;;;;4919553;29;20054;-51
2023/03/23 01:58:51;;;;;;;83.30;24.73;;;;;;;;;;4924189;29;20043;-50
2023/03/23 02:04:14;;;;;;;101.97;25.98;;;;;;;;;;4898349;29;20041;-51
2023/03/23 02:06:41;;;;;;;100.45;25.55;;;;;;;;;;4871446;29;20513;-49
2023/03/23 02:09:17;;;;;;;109.78;25.67;;;;;;;;;;4871805;29;20124;-47
2023/03/23 02:11:44;;;;;;;109.10;25.45;;;;;;;;;;4902841;29;20161;-47
2023/03/23 02:14:10;;;;;;;107.35;25.77;;;;;;;;;;4905081;29;20037;-49
2023/03/23 02:16:42;;;;;;;89.63;25.77;;;;;;;;;;4891462;29;20049;-49
2023/03/23 02:19:27;;;;;;;119.25;26.73;;;;;;;;;;4891009;29;20044;-49
2023/03/23 02:22:02;;;;;;;80.88;23.95;;;;;;;;;;4889506;29;20084;-48
2023/03/23 02:24:46;;;;;;;103.45;26.20;;;;;;;;;;4887480;29;20217;-49
2023/03/23 02:27:18;;;;;;;93.43;25.17;;;;;;;;;;4890878;29;20104;-50
2023/03/23 02:30:02;;;;;;;97.97;27.20;;;;;;;;;;4906457;29;20136;-52
2023/03/23 02:32:39;;;;;;;98.07;27.67;;;;;;;;;;4890657;29;20056;-48
2023/03/23 02:35:15;;;;;;;105.22;28.00;;;;;;;;;;4888262;29;20525;-47
2023/03/23 02:37:45;;;;;;;104.32;26.65;;;;;;;;;;4877212;29;20124;-46
2023/03/23 02:40:15;;;;;;;111.32;27.80;;;;;;;;;;4890413;29;20033;-47
2023/03/23 02:42:42;;;;;;;120.50;28.42;;;;;;;;;;4873035;29;20049;-50
2023/03/23 02:45:08;;;;;;;110.57;28.52;;;;;;;;;;4875113;29;20537;-47
2023/03/23 02:47:35;;;;;;;137.95;30.30;;;;;;;;;;4890409;29;20192;-51
2023/03/23 02:50:01;;;;;;;77.13;24.08;;;;;;;;;;4877166;29;20060;-48
2023/03/23 02:52:31;;;;;;;96.15;25.65;;;;;;;;;;4906803;29;20504;-48
2023/03/23 02:54:58;;;;;;;104.05;26.48;;;;;;;;;;4875192;29;20055;-50
2023/03/23 02:57:24;;;;;;;86.70;24.83;;;;;;;;;;4905698;29;20462;-48
2023/03/23 02:59:51;;;;;;;98.57;25.70;;;;;;;;;;4890385;29;20198;-49
2023/03/23 03:02:16;;;;;;;142.68;27.80;;;;;;;;;;4905781;29;20143;-48
2023/03/23 03:04:44;;;;;;;102.22;26.77;;;;;;;;;;4906966;29;20387;-50
2023/03/23 03:07:24;;;;;;;75.88;23.00;;;;;;;;;;4906264;29;20478;-48
2023/03/23 03:09:53;;;;;;;84.75;23.38;;;;;;;;;;4876297;29;20071;-64
2023/03/23 03:12:25;;;;;;;84.63;23.95;;;;;;;;;;4867673;29;20037;-64
2023/03/23 03:14:58;;;;;;;101.65;26.02;;;;;;;;;;4902758;29;20041;-65
2023/03/23 03:17:24;;;;;;;92.93;23.83;;;;;;;;;;4890704;29;20059;-67
2023/03/23 03:19:52;;;;;;;99.72;25.70;;;;;;;;;;4890558;29;20048;-65
2023/03/23 03:22:20;;;;;;;113.57;26.15;;;;;;;;;;4876159;29;20047;-65
2023/03/23 03:24:47;;;;;;;77.53;24.27;;;;;;;;;;4907045;29;20073;-65
2023/03/23 03:27:16;;;;;;;97.53;24.27;;;;;;;;;;4889835;29;20499;-65
2023/03/23 03:29:47;;;;;;;93.70;24.65;;;;;;;;;;4886919;29;20033;-65
2023/03/23 03:32:16;;;;;;;98.22;24.70;;;;;;;;;;4890374;29;20576;-65
2023/03/23 03:34:42;;;;;;;98.25;25.20;;;;;;;;;;4905964;29;20048;-65
2023/03/23 03:37:11;;;;;;;100.68;24.67;;;;;;;;;;4890113;29;20742;-65
2023/03/23 03:39:37;;;;;;;128.00;26.58;;;;;;;;;;4905263;29;20045;-65
2023/03/23 03:42:04;;;;;;;76.30;23.98;;;;;;;;;;4875436;29;20040;-65
2023/03/23 03:44:31;;;;;;;95.10;24.83;;;;;;;;;;4890408;29;20139;-66
2023/03/23 03:46:56;;;;;;;83.28;25.80;;;;;;;;;;4876861;29;20045;-65
2023/03/23 03:49:22;;;;;;;92.60;24.58;;;;;;;;;;4905532;29;20611;-65
2023/03/23 03:51:48;;;;;;;94.45;25.65;;;;;;;;;;4889271;29;20691;-65
2023/03/23 03:54:19;;;;;;;72.30;23.67;;;;;;;;;;4889998;29;20124;-65
2023/03/23 03:56:45;;;;;;;96.95;26.15;;;;;;;;;;4905124;29;20182;-65
2023/03/23 03:59:34;;;;;;;109.25;27.02;;;;;;;;;;4871783;29;20128;-66
2023/03/23 04:02:19;;;;;;;127.55;27.73;;;;;;;;;;4873817;29;20053;-65
2023/03/23 04:04:47;;;;;;;70.72;24.35;;;;;;;;;;4892064;29;20040;-66
2023/03/23 04:07:13;;;;;;;92.25;24.52;;;;;;;;;;4889781;29;20041;-65
2023/03/23 04:09:40;;;;;;;117.13;26.42;;;;;;;;;;4889030;29;20049;-66
2023/03/23 04:12:05;;;;;;;96.40;26.83;;;;;;;;;;4875384;29;20141;-49
2023/03/23 04:14:57;;;;;;;93.05;26.13;;;;;;;;;;4889592;29;20088;-49
2023/03/23 04:17:31;;;;;;;105.50;26.23;;;;;;;;;;4891352;29;20040;-50
2023/03/23 04:19:56;;;;;;;95.03;24.85;;;;;;;;;;4891431;29;20053;-50
2023/03/23 04:22:29;;;;;;;69.72;22.95;;;;;;;;;;4891180;29;20069;-49
2023/03/23 04:25:00;;;;;;;75.68;24.13;;;;;;;;;;4892029;29;20040;-48
2023/03/23 04:27:27;;;;;;;125.95;27.15;;;;;;;;;;4872828;29;20860;-49
2023/03/23 04:29:56;;;;;;;96.80;24.67;;;;;;;;;;4889966;29;20075;-47
2023/03/23 04:32:50;;;;;;;117.40;27.70;;;;;;;;;;4889417;29;20486;-48
2023/03/23 04:35:20;;;;;;;120.20;26.15;;;;;;;;;;4890629;29;20449;-49
2023/03/23 04:37:52;;;;;;;111.50;27.05;;;;;;;;;;4891475;29;20051;-51
2023/03/23 04:40:19;;;;;;;81.78;25.20;;;;;;;;;;4875280;29;20151;-47
2023/03/23 04:42:58;;;;;;;96.70;25.20;;;;;;;;;;4890221;29;20120;-51
2023/03/23 04:45:37;;;;;;;93.22;24.77;;;;;;;;;;4874808;29;20052;-48
2023/03/23 04:48:04;;;;;;;120.63;26.98;;;;;;;;;;4890574;29;20636;-49
2023/03/23 04:50:42;;;;;;;117.75;27.80;;;;;;;;;;4882046;29;20032;-47
2023/03/23 04:53:17;;;;;;;116.03;27.35;;;;;;;;;;4873609;29;20041;-49
2023/03/23 04:55:43;;;;;;;122.75;28.63;;;;;;;;;;4904428;29;20056;-50
2023/03/23 04:58:15;;;;;;;93.80;25.88;;;;;;;;;;4888791;29;20051;-48
2023/03/23 05:00:54;;;;;;;89.40;27.08;;;;;;;;;;4885852;29;20048;-48
2023/03/23 05:03:22;;;;;;;135.52;30.35;;;;;;;;;;4888539;29;20049;-48
2023/03/23 05:05:53;;;;;;;93.65;26.67;;;;;;;;;;4888547;29;20033;-52
2023/03/23 05:08:20;;;;;;;131.25;28.17;;;;;;;;;;4904284;29;20047;-48
2023/03/23 05:10:49;;;;;;;92.43;26.23;;;;;;;;;;4888565;29;20052;-47
2023/03/23 05:13:15;;;;;;;87.57;25.67;;;;;;;;;;4886584;29;20064;-50
2023/03/23 05:15:45;;;;;;;96.43;25.80;;;;;;;;;;4903952;29;20048;-50
2023/03/23 05:18:11;;;;;;;107.70;26.30;;;;;;;;;;4873846;29;20044;-49
2023/03/23 05:20:37;;;;;;;84.70;23.42;;;;;;;;;;4903900;29;20044;-48
2023/03/23 05:23:08;;;;;;;138.48;26.85;;;;;;;;;;4889031;29;20120;-49
2023/03/23 05:25:39;;;;;;;101.28;26.20;;;;;;;;;;4904488;29;20439;-47
2023/03/23 05:28:10;;;;;;;96.25;27.50;;;;;;;;;;4885319;29;20071;-48
2023/03/23 05:30:50;;;;;;;100.80;27.20;;;;;;;;;;4887900;29;20072;-49
2023/03/23 05:33:17;;;;;;;76.85;25.75;;;;;;;;;;4872553;29;20025;-51
2023/03/23 05:36:02;;;;;;;69.75;27.58;;;;;;;;;;4872572;29;20060;-45
2023/03/23 05:38:36;;;;;;;87.53;27.80;;;;;;;;;;4887942;29;20476;-50
2023/03/23 05:41:02;;;;;;;96.20;24.52;;;;;;;;;;4900755;29;20037;-49
2023/03/23 05:43:36;;;;;;;121.13;26.58;;;;;;;;;;4888470;29;20033;-65
2023/03/23 05:46:11;;;;;;;131.90;26.30;;;;;;;;;;4885075;29;20139;-65
2023/03/23 05:48:38;;;;;;;87.40;21.33;;;;;;;;;;4903467;29;20044;-65
2023/03/23 05:51:08;;;;;;;80.90;23.33;;;;;;;;;;4887843;29;20061;-65
2023/03/23 05:53:37;;;;;;;148.63;28.80;;;;;;;;;;4891744;29;20064;-66
2023/03/23 05:56:03;;;;;;;100.18;25.85;;;;;;;;;;4878339;29;20032;-65
2023/03/23 05:58:53;;;;;;;131.88;26.50;;;;;;;;;;4878411;29;20077;-66
2023/03/23 06:01:18;;;;;;;95.13;22.38;;;;;;;;;;4891115;29;20109;-66
2023/03/23 06:03:44;;;;;;;71.35;21.05;;;;;;;;;;4891690;29;20037;-66
2023/03/23 06:06:17;;;;;;;97.43;23.25;;;;;;;;;;4891000;29;20040;-66
2023/03/23 06:08:51;;;;;;;95.13;22.98;;;;;;;;;;4887816;29;20498;-66
2023/03/23 06:11:24;;;;;;;100.85;22.17;;;;;;;;;;4892973;29;20049;-66
2023/03/23 06:14:13;;;;;;;93.07;21.58;;;;;;;;;;4874476;29;20037;-66
2023/03/23 06:16:38;;;;;;;79.30;22.27;;;;;;;;;;4892434;29;20025;-66
2023/03/23 06:19:07;;;;;;;79.20;20.90;;;;;;;;;;4891793;29;20037;-67
2023/03/23 06:21:35;;;;;;;86.47;21.75;;;;;;;;;;4876780;29;20045;-66
2023/03/23 06:24:21;;;;;;;67.03;19.77;;;;;;;;;;4874389;29;20041;-66
2023/03/23 06:26:48;;;;;;;84.90;20.80;;;;;;;;;;4891654;29;20124;-66
2023/03/23 06:29:18;;;;;;;112.07;22.27;;;;;;;;;;4906885;29;20463;-67
2023/03/23 06:31:48;;;;;;;68.38;20.63;;;;;;;;;;4892033;29;20152;-66
2023/03/23 06:34:14;;;;;;;75.55;20.65;;;;;;;;;;4891385;29;20045;-66
2023/03/23 06:36:58;;;;;;;74.53;20.50;;;;;;;;;;4877007;29;20059;-66
2023/03/23 06:39:31;;;;;;;75.13;20.67;;;;;;;;;;4902985;29;20040;-66
2023/03/23 06:42:16;;;;;;;75.00;19.98;;;;;;;;;;4891347;29;20061;-66
2023/03/23 06:44:47;;;;;;;70.57;18.58;;;;;;;;;;4905720;29;20068;-46
2023/03/23 06:47:13;;;;;;;108.65;21.17;;;;;;;;;;4888369;29;20498;-47
2023/03/23 06:49:44;;;;;;;98.00;20.65;;;;;;;;;;4891248;29;20144;-47
2023/03/23 06:52:22;;;;;;;84.00;19.67;;;;;;;;;;4893889;29;20064;-49
2023/03/23 06:54:49;;;;;;;66.05;18.35;;;;;;;;;;4906875;29;20056;-47
2023/03/23 06:57:17;;;;;;;83.32;18.90;;;;;;;;;;4886925;29;20174;-47
2023/03/23 06:59:45;;;;;;;87.95;19.65;;;;;;;;;;4875011;29;20530;-48
2023/03/23 07:02:11;;;;;;;88.35;18.70;;;;;;;;;;4891077;29;20085;-47
2023/03/23 07:04:40;;;;;;;84.28;19.23;;;;;;;;;;4907021;29;20037;-47
2023/03/23 07:07:12;;;;;;;101.38;18.83;;;;;;;;;;4890113;29;20498;-47
2023/03/23 07:09:46;;;;;;;63.75;17.00;;;;;;;;;;4887081;29;20055;-46
2023/03/23 07:12:14;;;;;;;68.90;17.27;;;;;;;;;;4906654;29;20414;-50
2023/03/23 07:14:45;;;;;;;86.40;18.02;;;;;;;;;;4906021;29;20041;-48
2023/03/23 07:17:11;;;;;;;74.80;16.95;;;;;;;;;;4890786;29;20037;-47
2023/03/23 07:19:42;;;;;;;100.93;19.35;;;;;;;;;;4906226;29;20090;-47
2023/03/23 07:22:11;;;;;;;69.70;15.88;;;;;;;;;;4890302;29;20446;-47
2023/03/23 07:24:38;;;;;;;87.15;17.27;;;;;;;;;;4892682;29;20048;-46
2023/03/23 07:27:26;;;;;;;98.25;16.63;;;;;;;;;;4874448;29;20045;-48
2023/03/23 07:29:55;;;;;;;88.55;16.58;;;;;;;;;;4858699;29;20061;-48
2023/03/23 07:32:25;;;;;;;111.90;18.90;;;;;;;;;;4888746;29;20037;-47
2023/03/23 07:34:50;;;;;;;76.25;15.80;;;;;;;;;;4889304;29;20040;-47
2023/03/23 07:37:36;;;;;;;94.85;16.35;;;;;;;;;;4873949;29;20052;-48
2023/03/23 07:40:14;;;;;;;76.00;15.43;;;;;;;;;;4889481;29;20077;-47
2023/03/23 07:42:43;;;;;;;69.97;14.98;;;;;;;;;;4889675;29;20064;-45
2023/03/23 07:45:10;;;;;;;102.10;16.92;;;;;;;;;;4890220;29;20037;-47
2023/03/23 07:47:36;;;;;;;72.45;14.65;;;;;;;;;;4889990;29;20047;-46
2023/03/23 07:50:01;;;;;;;83.43;14.70;;;;;;;;;;4890291;29;20037;-46
2023/03/23 07:52:34;;;;;;;110.97;16.45;;;;;;;;;;4892934;29;20042;-48
2023/03/23 07:55:01;;;;;;;60.35;12.20;;;;;;;;;;4890163;29;20044;-65
2023/03/23 07:57:46;;;;;;;85.80;15.15;;;;;;;;;;4888702;29;20033;-65
2023/03/23 08:00:15;;;;;;;65.25;13.32;;;;;;;;;;4875565;29;20033;-66
2023/03/23 08:02:43;;;;;;;84.60;14.02;;;;;;;;;;4875312;29;20045;-65
2023/03/23 08:05:28;;;;;;;59.17;12.73;;;;;;;;;;4888441;29;20041;-65
2023/03/23 08:08:12;;;;;;;92.80;14.10;;;;;;;;;;4875710;29;20063;-65
2023/03/23 08:10:57;;;;;;;55.35;11.95;;;;;;;;;;4855302;29;20222;-65
2023/03/23 08:13:43;;;;;;;71.00;12.80;;;;;;;;;;4854151;29;20118;-65
2023/03/23 08:16:19;;;;;;;57.00;11.07;;;;;;;;;;4853889;29;20208;-65
2023/03/23 08:19:08;;;;;;;82.85;13.23;;;;;;;;;;4844150;29;20053;-65
2023/03/23 08:21:57;;;;;;;100.18;14.95;;;;;;;;;;4840293;29;20060;-65
2023/03/23 08:24:37;;;;;;;55.72;11.25;;;;;;;;;;4848201;29;20094;-65
2023/03/23 08:27:22;;;;;;;83.90;13.38;;;;;;;;;;4843938;29;20054;-65
2023/03/23 08:30:09;;;;;;;63.95;11.57;;;;;;;;;;4842168;29;20061;-65
2023/03/23 08:33:00;;;;;;;73.63;10.60;;;;;;;;;;4827462;29;20071;-66
2023/03/23 08:35:58;;;;;;;78.38;11.85;;;;;;;;;;4825147;29;20056;-65
2023/03/23 08:38:44;;;;;;;92.68;12.32;;;;;;;;;;4826744;29;20086;-65
2023/03/23 08:41:28;;;;;;;81.57;11.82;;;;;;;;;;4827482;29;20154;-65
2023/03/23 08:44:08;;;;;;;77.75;10.32;;;;;;;;;;4812526;29;20050;-66
2023/03/23 08:46:56;;;;;;;49.55;8.13;;;;;;;;;;4824007;29;20167;-65
2023/03/23 08:49:42;;;;;;;81.07;10.48;;;;;;;;;;4808239;29;20655;-65
2023/03/23 08:52:29;;;;;;;86.93;10.57;;;;;;;;;;4806780;29;20057;-65
2023/03/23 08:55:09;;;;;;;52.55;8.25;;;;;;;;;;4809418;29;20042;-65
2023/03/23 08:57:49;;;;;;;100.20;11.30;;;;;;;;;;4832348;29;20064;-65
2023/03/23 09:00:34;;;;;;;62.20;9.50;;;;;;;;;;4831555;29;20053;-65
2023/03/23 09:03:06;;;;;;;81.00;10.63;;;;;;;;;;4834410;29;20065;-65
2023/03/23 09:05:53;;;;;;;54.03;8.68;;;;;;;;;;4831550;29;20277;-65
2023/03/23 09:08:32;;;;;;;47.78;8.75;;;;;;;;;;4834811;29;20050;-65
2023/03/23 09:11:05;;;;;;;51.90;7.80;;;;;;;;;;4873364;29;20144;-65
2023/03/23 09:13:31;;;;;;;90.95;11.35;;;;;;;;;;4873499;29;20481;-65
2023/03/23 09:15:57;;;;;;;60.47;8.88;;;;;;;;;;4874050;29;21921;-65
2023/03/23 09:18:23;;;;;;;46.38;7.72;;;;;;;;;;4874013;29;20040;-65
2023/03/23 09:20:49;;;;;;;95.85;11.38;;;;;;;;;;4873617;29;20533;-47
2023/03/23 09:23:15;;;;;;;67.07;9.25;;;;;;;;;;4875732;29;20144;-46
2023/03/23 09:25:40;;;;;;;59.03;8.63;;;;;;;;;;4872983;29;20160;-47
2023/03/23 09:28:06;;;;;;;68.07;8.98;;;;;;;;;;4873623;29;20089;-47
2023/03/23 09:30:33;;;;;;;51.22;8.15;;;;;;;;;;4873659;29;20490;-46
2023/03/23 09:33:03;;;;;;;43.25;7.50;;;;;;;;;;4873958;29;20032;-47
2023/03/23 09:35:29;;;;;;;99.00;10.52;;;;;;;;;;4872964;29;20053;-48
2023/03/23 09:37:55;;;;;;;65.45;8.60;;;;;;;;;;4873528;29;20057;-46
2023/03/23 09:40:22;;;;;;;32.53;5.88;;;;;;;;;;4873898;29;20113;-48
2023/03/23 09:43:14;;;;;;;65.90;8.23;;;;;;;;;;4873863;29;20336;-46
2023/03/23 09:46:00;;;;;;;75.32;8.80;;;;;;;;;;4833910;29;20535;-49
2023/03/23 09:48:36;;;;;;;43.65;6.15;;;;;;;;;;4833929;29;20045;-49
2023/03/23 09:51:11;;;;;;;50.80;7.80;;;;;;;;;;4833757;29;20815;-48
2023/03/23 09:53:39;;;;;;;80.30;9.02;;;;;;;;;;4833702;29;20046;-48
2023/03/23 09:56:09;;;;;;;54.75;7.88;;;;;;;;;;4838169;29;20081;-46
2023/03/23 09:58:50;;;;;;;65.80;8.70;;;;;;;;;;4833734;29;20050;-48
2023/03/23 10:01:21;;;;;;;55.08;7.43;;;;;;;;;;4833831;29;20137;-48
2023/03/23 10:03:47;;;;;;;55.72;7.28;;;;;;;;;;4833527;29;20606;-49
2023/03/23 10:06:15;;;;;;;70.70;8.13;;;;;;;;;;4833498;29;20041;-46
2023/03/23 10:08:49;;;;;;;85.80;8.90;;;;;;;;;;4833940;29;20050;-47
2023/03/23 10:11:20;;;;;;;101.28;10.50;;;;;;;;;;4819079;29;20101;-47
2023/03/23 10:13:51;;;;;;;46.80;6.50;;;;;;;;;;4834649;29;20452;-47
2023/03/23 10:16:20;;;;;;;56.53;7.68;;;;;;;;;;4831157;29;20061;-45
2023/03/23 10:18:54;;;;;;;93.28;9.27;;;;;;;;;;4833999;29;20057;-49
2023/03/23 10:21:21;;;;;;;44.92;6.65;;;;;;;;;;4833798;29;20038;-48
2023/03/23 10:23:46;;;;;;;67.43;7.93;;;;;;;;;;4874959;29;20120;-48
2023/03/23 10:26:24;;;;;;;70.53;8.35;;;;;;;;;;4873451;29;20160;-47
2023/03/23 10:29:10;;;;;;;50.72;6.78;;;;;;;;;;4874019;29;20080;-48
2023/03/23 10:31:37;;;;;;;56.30;7.55;;;;;;;;;;4871922;29;20057;-65
2023/03/23 10:34:08;;;;;;;45.17;6.78;;;;;;;;;;4873481;29;20125;-65
2023/03/23 10:36:37;;;;;;;97.60;11.13;;;;;;;;;;4876687;29;20057;-65
2023/03/23 10:39:07;;;;;;;40.05;6.53;;;;;;;;;;4877423;29;20048;-65
2023/03/23 10:41:33;;;;;;;71.03;7.70;;;;;;;;;;4876880;29;20045;-65
2023/03/23 10:43:59;;;;;;;64.85;8.02;;;;;;;;;;4877236;29;20041;-65
2023/03/23 10:46:46;;;;;;;46.22;5.88;;;;;;;;;;4877298;29;20051;-65
2023/03/23 10:49:14;;;;;;;85.63;9.43;;;;;;;;;;4875369;29;20041;-64
2023/03/23 10:51:41;;;;;;;54.58;6.45;;;;;;;;;;4875765;29;20446;-65
2023/03/23 10:54:07;;;;;;;44.00;6.82;;;;;;;;;;4876363;29;20037;-65
2023/03/23 10:56:37;;;;;;;89.63;9.57;;;;;;;;;;4876078;29;20041;-64
2023/03/23 10:59:19;;;;;;;61.00;7.40;;;;;;;;;;4877097;29;20060;-65
2023/03/23 11:01:47;;;;;;;75.60;8.35;;;;;;;;;;4876650;29;20061;-64
2023/03/23 11:04:15;;;;;;;80.72;9.20;;;;;;;;;;4873392;29;20120;-64
2023/03/23 11:06:44;;;;;;;64.13;8.00;;;;;;;;;;4875792;29;20041;-64
2023/03/23 11:09:11;;;;;;;90.38;8.38;;;;;;;;;;4876257;29;20045;-64
2023/03/23 11:11:38;;;;;;;77.78;8.15;;;;;;;;;;4890234;29;20048;-64
2023/03/23 11:14:24;;;;;;;64.13;6.78;;;;;;;;;;4876633;29;20065;-64
2023/03/23 11:16:52;;;;;;;62.63;6.70;;;;;;;;;;4876712;29;20136;-64
2023/03/23 11:19:23;;;;;;;48.85;6.13;;;;;;;;;;4875723;29;20037;-64
2023/03/23 11:21:51;;;;;;;77.97;8.02;;;;;;;;;;4875514;29;20633;-64
2023/03/23 11:24:17;;;;;;;56.50;7.22;;;;;;;;;;4877083;29;20143;-64
2023/03/23 11:26:43;;;;;;;95.35;8.93;;;;;;;;;;4875925;29;20116;-64
2023/03/23 11:29:22;;;;;;;113.47;10.25;;;;;;;;;;4872637;29;20554;-64
2023/03/23 11:31:51;;;;;;;43.58;5.45;;;;;;;;;;4876857;29;20044;-64
2023/03/23 11:34:24;;;;;;;62.90;6.25;;;;;;;;;;4875456;29;20678;-64
2023/03/23 11:36:52;;;;;;;39.63;4.95;;;;;;;;;;4871820;29;20508;-63
2023/03/23 11:39:22;;;;;;;60.65;6.60;;;;;;;;;;4876372;29;20037;-64
2023/03/23 11:41:48;;;;;;;126.95;10.20;;;;;;;;;;4875210;29;20028;-64
2023/03/23 11:44:13;;;;;;;136.38;10.82;;;;;;;;;;4875116;29;20464;-51
2023/03/23 11:46:41;;;;;;;66.35;7.07;;;;;;;;;;4871264;29;20494;-46
2023/03/23 11:49:15;;;;;;;149.63;12.10;;;;;;;;;;4876588;29;20455;-46
2023/03/23 11:51:51;;;;;;;53.78;5.70;;;;;;;;;;4871339;29;20041;-46
2023/03/23 11:54:19;;;;;;;72.40;6.28;;;;;;;;;;4875154;29;20096;-46
2023/03/23 11:56:46;;;;;;;70.13;6.32;;;;;;;;;;4875224;29;20406;-46
2023/03/23 11:59:16;;;;;;;60.03;5.30;;;;;;;;;;4876119;29;20051;-48
2023/03/23 12:01:46;;;;;;;77.43;6.25;;;;;;;;;;4875430;29;20041;-48
2023/03/23 12:04:18;;;;;;;85.55;7.22;;;;;;;;;;4871855;29;20045;-49
2023/03/23 12:06:49;;;;;;;52.50;4.53;;;;;;;;;;4875523;29;20041;-48
2023/03/23 12:09:30;;;;;;;100.43;11.85;;;;;;;;;;4874824;29;20072;-47
2023/03/23 12:11:56;;;;;;;40.25;5.32;;;;;;;;;;4872564;29;20464;-47
2023/03/23 12:14:22;;;;;;;102.97;7.63;;;;;;;;;;4875023;29;20072;-46
2023/03/23 12:17:25;;;;;;;67.80;6.28;;;;;;;;;;4875614;29;20068;-47
2023/03/23 12:19:57;;;;;;;78.93;6.82;;;;;;;;;;4835465;29;20048;-48
2023/03/23 12:22:32;;;;;;;46.03;4.85;;;;;;;;;;4833737;29;20049;-46
2023/03/23 12:25:03;;;;;;;93.55;7.30;;;;;;;;;;4835515;29;20467;-49
2023/03/23 12:27:35;;;;;;;90.95;7.03;;;;;;;;;;4835050;29;20477;-47
2023/03/23 12:30:10;;;;;;;50.65;4.70;;;;;;;;;;4835503;29;20038;-49
2023/03/23 12:32:44;;;;;;;79.35;13.55;;;;;;;;;;4835113;29;20050;-47
2023/03/23 12:35:32;;;;;;;54.22;5.45;;;;;;;;;;4835991;29;20206;-45
2023/03/23 12:38:05;;;;;;;43.63;4.53;;;;;;;;;;4829672;29;20065;-45
2023/03/23 12:40:43;;;;;;;45.25;4.20;;;;;;;;;;4835260;29;20061;-46
2023/03/23 12:43:08;;;;;;;76.95;6.05;;;;;;;;;;4835903;29;20042;-45
2023/03/23 12:45:41;;;;;;;67.45;6.13;;;;;;;;;;4834914;29;20065;-63
2023/03/23 12:48:12;;;;;;;75.47;6.15;;;;;;;;;;4833124;29;20057;-63
2023/03/23 12:50:43;;;;;;;75.30;6.85;;;;;;;;;;4854266;29;20510;-64
2023/03/23 12:53:09;;;;;;;67.38;6.30;;;;;;;;;;4875664;29;20049;-63
2023/03/23 12:55:39;;;;;;;85.53;7.20;;;;;;;;;;4873962;29;20083;-63
2023/03/23 12:58:09;;;;;;;49.35;4.85;;;;;;;;;;4874268;29;20033;-63
2023/03/23 13:00:53;;;;;;;67.00;5.53;;;;;;;;;;4874289;29;20029;-63
2023/03/23 13:03:34;;;;;;;44.78;4.25;;;;;;;;;;4872243;29;20053;-63
2023/03/23 13:06:00;;;;;;;64.20;6.13;;;;;;;;;;4874232;29;20055;-63
2023/03/23 13:08:27;;;;;;;84.38;6.93;;;;;;;;;;4874641;29;20041;-63
2023/03/23 13:10:55;;;;;;;63.28;6.03;;;;;;;;;;4874906;29;20039;-63
2023/03/23 13:13:23;;;;;;;77.82;6.72;;;;;;;;;;4874408;29;20029;-63
2023/03/23 13:16:03;;;;;;;43.63;4.40;;;;;;;;;;4874058;29;20146;-63
2023/03/23 13:18:40;;;;;;;78.63;6.75;;;;;;;;;;4870452;29;20127;-63
2023/03/23 13:21:15;;;;;;;67.15;5.97;;;;;;;;;;4874023;29;20044;-63
2023/03/23 13:23:43;;;;;;;69.95;6.60;;;;;;;;;;4873913;29;20382;-63
2023/03/23 13:26:13;;;;;;;83.05;7.57;;;;;;;;;;4874954;29;20554;-63
2023/03/23 13:28:45;;;;;;;41.40;4.60;;;;;;;;;;4888097;29;20127;-63
2023/03/23 13:31:25;;;;;;;86.05;7.85;;;;;;;;;;4873895;29;20037;-63
2023/03/23 13:33:51;;;;;;;51.50;5.63;;;;;;;;;;4870311;29;20057;-63
2023/03/23 13:36:24;;;;;;;67.47;6.57;;;;;;;;;;4887631;29;20048;-63
2023/03/23 13:38:50;;;;;;;83.30;7.45;;;;;;;;;;4873140;29;20359;-63
2023/03/23 13:41:17;;;;;;;74.55;7.22;;;;;;;;;;4874069;29;20105;-63
2023/03/23 13:43:44;;;;;;;96.80;8.38;;;;;;;;;;4873756;29;20051;-63
2023/03/23 13:46:19;;;;;;;77.50;6.82;;;;;;;;;;4887330;29;20132;-63
2023/03/23 13:48:50;;;;;;;51.25;5.80;;;;;;;;;;4870282;29;20029;-63
2023/03/23 13:51:42;;;;;;;96.30;8.38;;;;;;;;;;4872715;29;20064;-64
2023/03/23 13:54:18;;;;;;;25.90;4.25;;;;;;;;;;4869507;29;20064;-46
2023/03/23 13:57:01;;;;;;;62.92;6.55;;;;;;;;;;4849891;29;20041;-48
2023/03/23 13:59:26;;;;;;;91.17;7.93;;;;;;;;;;4850785;29;20148;-46
2023/03/23 14:01:55;;;;;;;52.72;5.72;;;;;;;;;;4853028;29;20224;-47
2023/03/23 14:04:21;;;;;;;31.13;5.20;;;;;;;;;;4837012;29;20057;-47
2023/03/23 14:06:48;;;;;;;73.65;7.32;;;;;;;;;;4851423;29;20041;-50
2023/03/23 14:09:26;;;;;;;74.00;7.07;;;;;;;;;;4852123;29;20037;-47
2023/03/23 14:11:54;;;;;;;46.47;5.60;;;;;;;;;;4855861;29;20490;-45
2023/03/23 14:14:35;;;;;;;120.55;10.25;;;;;;;;;;4855563;29;20132;-49
2023/03/23 14:17:08;;;;;;;65.18;6.28;;;;;;;;;;4855662;29;20049;-47
2023/03/23 14:19:37;;;;;;;87.28;7.95;;;;;;;;;;4854791;29;20101;-48
2023/03/23 14:22:02;;;;;;;55.08;5.03;;;;;;;;;;4855339;29;20498;-47
2023/03/23 14:24:30;;;;;;;92.32;7.35;;;;;;;;;;4858796;29;20053;-47
2023/03/23 14:27:05;;;;;;;82.50;7.47;;;;;;;;;;4855710;29;20196;-47
2023/03/23 14:29:30;;;;;;;93.65;7.18;;;;;;;;;;4853818;29;20144;-47
2023/03/23 14:31:56;;;;;;;52.15;4.88;;;;;;;;;;4875683;29;20483;-48
2023/03/23 14:34:24;;;;;;;129.15;10.18;;;;;;;;;;4875836;29;20335;-46
2023/03/23 14:36:50;;;;;;;57.05;5.65;;;;;;;;;;4876057;29;20084;-45
2023/03/23 14:39:19;;;;;;;57.40;5.57;;;;;;;;;;4876488;29;20036;-48
2023/03/23 14:41:44;;;;;;;98.53;8.50;;;;;;;;;;4876304;29;20040;-48
2023/03/23 14:44:13;;;;;;;72.28;6.75;;;;;;;;;;4877389;29;20244;-46
2023/03/23 14:46:38;;;;;;;54.97;5.63;;;;;;;;;;4876180;29;20041;-47